sensor_id;sensor_type;location;lat;lon;timestamp;temperature;humidity
41838;DHT22;27511;52.042;5.178;2023-11-22T00:01:04;9.30;99.90
41838;DHT22;27511;52.042;5.178;2023-11-22T00:03:31;9.40;99.90
41838;DHT22;27511;52.042;5.178;2023-11-22T00:05:57;9.50;99.90
41838;DHT22;27511;52.042;5.178;2023-11-22T00:08:22;9.50;99.90
41838;DHT22;27511;52.042;5.178;2023-11-22T00:10:48;9.40;99.90
41838;DHT22;27511;52.042;5.178;2023-11-22T00:13:13;9.40;99.90
41838;DHT22;27511;52.042;5.178;2023-11-22T00:15:39;9.40;99.90
41838;DHT22;27511;52.042;5.178;2023-11-22T00:18:04;9.40;99.90
41838;DHT22;27511;52.042;5.178;2023-11-22T00:20:30;9.50;99.90
41838;DHT22;27511;52.042;5.178;2023-11-22T00:22:56;9.50;99.90
41838;DHT22;27511;52.042;5.178;2023-11-22T00:25:22;9.50;99.90
41838;DHT22;27511;52.042;5.178;2023-11-22T00:27:48;9.40;99.90
41838;DHT22;27511;52.042;5.178;2023-11-22T00:30:14;9.50;99.90
41838;DHT22;27511;52.042;5.178;2023-11-22T00:32:39;9.50;99.90
41838;DHT22;27511;52.042;5.178;2023-11-22T00:35:06;9.50;99.90
41838;DHT22;27511;52.042;5.178;2023-11-22T00:37:33;9.40;99.90
41838;DHT22;27511;52.042;5.178;2023-11-22T00:40:00;9.40;99.90
41838;DHT22;27511;52.042;5.178;2023-11-22T00:42:26;9.40;99.90
41838;DHT22;27511;52.042;5.178;2023-11-22T00:44:52;9.30;99.90
41838;DHT22;27511;52.042;5.178;2023-11-22T00:47:18;9.30;99.90
41838;DHT22;27511;52.042;5.178;2023-11-22T00:49:44;9.30;99.90
41838;DHT22;27511;52.042;5.178;2023-11-22T00:52:10;9.40;99.90
41838;DHT22;27511;52.042;5.178;2023-11-22T00:54:35;9.30;99.90
41838;DHT22;27511;52.042;5.178;2023-11-22T00:57:01;9.30;99.90
41838;DHT22;27511;52.042;5.178;2023-11-22T00:59:26;9.40;99.90
41838;DHT22;27511;52.042;5.178;2023-11-22T01:01:52;9.30;99.90
41838;DHT22;27511;52.042;5.178;2023-11-22T01:04:17;9.20;99.90
41838;DHT22;27511;52.042;5.178;2023-11-22T01:06:43;9.20;99.90
41838;DHT22;27511;52.042;5.178;2023-11-22T01:09:08;9.20;99.90
41838;DHT22;27511;52.042;5.178;2023-11-22T01:11:34;9.40;99.90
41838;DHT22;27511;52.042;5.178;2023-11-22T01:14:00;9.30;99.90
41838;DHT22;27511;52.042;5.178;2023-11-22T01:16:26;9.40;99.90
41838;DHT22;27511;52.042;5.178;2023-11-22T01:18:52;9.30;99.90
41838;DHT22;27511;52.042;5.178;2023-11-22T01:21:18;9.40;99.90
41838;DHT22;27511;52.042;5.178;2023-11-22T01:23:45;9.20;99.90
41838;DHT22;27511;52.042;5.178;2023-11-22T01:26:11;9.20;99.90
41838;DHT22;27511;52.042;5.178;2023-11-22T01:28:36;9.20;99.90
41838;DHT22;27511;52.042;5.178;2023-11-22T01:31:02;9.10;99.90
41838;DHT22;27511;52.042;5.178;2023-11-22T01:33:29;9.10;99.90
41838;DHT22;27511;52.042;5.178;2023-11-22T01:35:54;9.20;99.90
41838;DHT22;27511;52.042;5.178;2023-11-22T01:38:20;9.10;99.90
41838;DHT22;27511;52.042;5.178;2023-11-22T01:40:46;9.10;99.90
41838;DHT22;27511;52.042;5.178;2023-11-22T01:43:19;9.00;99.90
41838;DHT22;27511;52.042;5.178;2023-11-22T01:45:45;9.00;99.90
41838;DHT22;27511;52.042;5.178;2023-11-22T01:48:11;8.90;99.90
41838;DHT22;27511;52.042;5.178;2023-11-22T01:50:38;9.00;99.90
41838;DHT22;27511;52.042;5.178;2023-11-22T01:53:06;9.00;99.90
41838;DHT22;27511;52.042;5.178;2023-11-22T01:55:33;9.00;99.90
41838;DHT22;27511;52.042;5.178;2023-11-22T01:57:59;9.00;99.90
41838;DHT22;27511;52.042;5.178;2023-11-22T02:00:26;8.90;99.90
41838;DHT22;27511;52.042;5.178;2023-11-22T02:02:52;8.90;99.90
41838;DHT22;27511;52.042;5.178;2023-11-22T02:05:18;8.90;99.90
41838;DHT22;27511;52.042;5.178;2023-11-22T02:07:44;8.90;99.90
41838;DHT22;27511;52.042;5.178;2023-11-22T02:10:10;8.90;99.90
41838;DHT22;27511;52.042;5.178;2023-11-22T02:12:35;8.80;99.90
41838;DHT22;27511;52.042;5.178;2023-11-22T02:15:02;8.90;99.90
41838;DHT22;27511;52.042;5.178;2023-11-22T02:17:29;8.90;99.90
41838;DHT22;27511;52.042;5.178;2023-11-22T02:19:54;8.80;99.90
41838;DHT22;27511;52.042;5.178;2023-11-22T02:22:20;8.80;99.90
41838;DHT22;27511;52.042;5.178;2023-11-22T02:24:47;8.80;99.90
41838;DHT22;27511;52.042;5.178;2023-11-22T02:27:12;8.80;99.90
41838;DHT22;27511;52.042;5.178;2023-11-22T02:29:38;8.80;99.90
41838;DHT22;27511;52.042;5.178;2023-11-22T02:32:04;8.80;99.90
41838;DHT22;27511;52.042;5.178;2023-11-22T02:34:29;8.80;99.90
41838;DHT22;27511;52.042;5.178;2023-11-22T02:36:55;8.70;99.90
41838;DHT22;27511;52.042;5.178;2023-11-22T02:39:21;8.70;99.90
41838;DHT22;27511;52.042;5.178;2023-11-22T02:41:47;8.70;99.90
41838;DHT22;27511;52.042;5.178;2023-11-22T02:44:13;8.60;99.90
41838;DHT22;27511;52.042;5.178;2023-11-22T02:46:42;8.60;99.90
41838;DHT22;27511;52.042;5.178;2023-11-22T02:49:08;8.60;99.90
41838;DHT22;27511;52.042;5.178;2023-11-22T02:51:35;8.50;99.90
41838;DHT22;27511;52.042;5.178;2023-11-22T02:54:00;8.40;99.90
41838;DHT22;27511;52.042;5.178;2023-11-22T02:56:26;8.40;99.90
41838;DHT22;27511;52.042;5.178;2023-11-22T02:58:51;8.40;99.90
41838;DHT22;27511;52.042;5.178;2023-11-22T03:01:17;8.30;99.90
41838;DHT22;27511;52.042;5.178;2023-11-22T03:03:43;8.30;99.90
41838;DHT22;27511;52.042;5.178;2023-11-22T03:06:08;8.40;99.90
41838;DHT22;27511;52.042;5.178;2023-11-22T03:08:34;8.30;99.90
41838;DHT22;27511;52.042;5.178;2023-11-22T03:11:00;8.30;99.90
41838;DHT22;27511;52.042;5.178;2023-11-22T03:13:25;8.30;99.90
41838;DHT22;27511;52.042;5.178;2023-11-22T03:15:51;8.20;99.90
41838;DHT22;27511;52.042;5.178;2023-11-22T03:18:17;8.10;99.90
41838;DHT22;27511;52.042;5.178;2023-11-22T03:20:43;8.10;99.90
41838;DHT22;27511;52.042;5.178;2023-11-22T03:23:09;8.00;99.90
41838;DHT22;27511;52.042;5.178;2023-11-22T03:25:36;8.00;99.90
41838;DHT22;27511;52.042;5.178;2023-11-22T03:28:02;8.00;99.90
41838;DHT22;27511;52.042;5.178;2023-11-22T03:30:28;8.00;99.90
41838;DHT22;27511;52.042;5.178;2023-11-22T03:32:53;7.90;99.90
41838;DHT22;27511;52.042;5.178;2023-11-22T03:35:19;8.00;99.90
41838;DHT22;27511;52.042;5.178;2023-11-22T03:37:45;7.90;99.90
41838;DHT22;27511;52.042;5.178;2023-11-22T03:40:11;8.00;99.90
41838;DHT22;27511;52.042;5.178;2023-11-22T03:42:37;7.90;99.90
41838;DHT22;27511;52.042;5.178;2023-11-22T03:45:05;7.90;99.90
41838;DHT22;27511;52.042;5.178;2023-11-22T03:47:31;7.90;99.90
41838;DHT22;27511;52.042;5.178;2023-11-22T03:49:58;8.00;99.90
41838;DHT22;27511;52.042;5.178;2023-11-22T03:52:25;8.00;99.90
41838;DHT22;27511;52.042;5.178;2023-11-22T03:54:50;8.00;99.90
41838;DHT22;27511;52.042;5.178;2023-11-22T03:57:16;8.00;99.90
41838;DHT22;27511;52.042;5.178;2023-11-22T03:59:42;8.00;99.90
41838;DHT22;27511;52.042;5.178;2023-11-22T04:02:08;8.00;99.90
41838;DHT22;27511;52.042;5.178;2023-11-22T04:04:34;8.00;99.90
41838;DHT22;27511;52.042;5.178;2023-11-22T04:07:00;8.00;99.90
41838;DHT22;27511;52.042;5.178;2023-11-22T04:09:25;8.00;99.90
41838;DHT22;27511;52.042;5.178;2023-11-22T04:11:51;8.00;99.90
41838;DHT22;27511;52.042;5.178;2023-11-22T04:14:17;8.00;99.90
41838;DHT22;27511;52.042;5.178;2023-11-22T04:16:45;8.00;99.90
41838;DHT22;27511;52.042;5.178;2023-11-22T04:19:11;8.00;99.90
41838;DHT22;27511;52.042;5.178;2023-11-22T04:21:36;8.00;99.90
41838;DHT22;27511;52.042;5.178;2023-11-22T04:24:02;8.00;99.90
41838;DHT22;27511;52.042;5.178;2023-11-22T04:26:28;8.00;99.90
41838;DHT22;27511;52.042;5.178;2023-11-22T04:28:53;8.00;99.90
41838;DHT22;27511;52.042;5.178;2023-11-22T04:31:19;8.00;99.90
41838;DHT22;27511;52.042;5.178;2023-11-22T04:33:44;8.00;99.90
41838;DHT22;27511;52.042;5.178;2023-11-22T04:36:10;7.90;99.90
41838;DHT22;27511;52.042;5.178;2023-11-22T04:38:37;8.00;99.90
41838;DHT22;27511;52.042;5.178;2023-11-22T04:41:03;8.00;99.90
41838;DHT22;27511;52.042;5.178;2023-11-22T04:43:28;8.00;99.90
41838;DHT22;27511;52.042;5.178;2023-11-22T04:45:54;8.10;99.90
41838;DHT22;27511;52.042;5.178;2023-11-22T04:48:20;8.10;99.90
41838;DHT22;27511;52.042;5.178;2023-11-22T04:50:45;8.10;99.90
41838;DHT22;27511;52.042;5.178;2023-11-22T04:53:11;8.00;99.90
41838;DHT22;27511;52.042;5.178;2023-11-22T04:55:37;8.10;99.90
41838;DHT22;27511;52.042;5.178;2023-11-22T04:58:03;8.10;99.90
41838;DHT22;27511;52.042;5.178;2023-11-22T05:00:28;8.10;99.90
41838;DHT22;27511;52.042;5.178;2023-11-22T05:02:54;8.10;99.90
41838;DHT22;27511;52.042;5.178;2023-11-22T05:05:20;8.10;99.90
41838;DHT22;27511;52.042;5.178;2023-11-22T05:07:46;8.20;99.90
41838;DHT22;27511;52.042;5.178;2023-11-22T05:10:12;8.20;99.90
41838;DHT22;27511;52.042;5.178;2023-11-22T05:12:38;8.20;99.90
41838;DHT22;27511;52.042;5.178;2023-11-22T05:15:04;8.10;99.90
41838;DHT22;27511;52.042;5.178;2023-11-22T05:17:30;8.00;99.90
41838;DHT22;27511;52.042;5.178;2023-11-22T05:19:56;8.00;99.90
41838;DHT22;27511;52.042;5.178;2023-11-22T05:22:21;8.10;99.90
41838;DHT22;27511;52.042;5.178;2023-11-22T05:24:48;8.10;99.90
41838;DHT22;27511;52.042;5.178;2023-11-22T05:27:14;8.10;99.90
41838;DHT22;27511;52.042;5.178;2023-11-22T05:29:39;8.10;99.90
41838;DHT22;27511;52.042;5.178;2023-11-22T05:32:05;8.10;99.90
41838;DHT22;27511;52.042;5.178;2023-11-22T05:34:32;8.10;99.90
41838;DHT22;27511;52.042;5.178;2023-11-22T05:36:58;8.10;99.90
41838;DHT22;27511;52.042;5.178;2023-11-22T05:39:24;8.10;99.90
41838;DHT22;27511;52.042;5.178;2023-11-22T05:41:51;8.10;99.90
41838;DHT22;27511;52.042;5.178;2023-11-22T05:44:16;8.10;99.90
41838;DHT22;27511;52.042;5.178;2023-11-22T05:46:42;8.10;99.90
41838;DHT22;27511;52.042;5.178;2023-11-22T05:49:07;8.10;99.90
41838;DHT22;27511;52.042;5.178;2023-11-22T05:51:33;8.10;99.90
41838;DHT22;27511;52.042;5.178;2023-11-22T05:53:59;8.10;99.90
41838;DHT22;27511;52.042;5.178;2023-11-22T05:56:25;8.10;99.90
41838;DHT22;27511;52.042;5.178;2023-11-22T05:58:50;8.10;99.90
41838;DHT22;27511;52.042;5.178;2023-11-22T06:01:16;8.10;99.90
41838;DHT22;27511;52.042;5.178;2023-11-22T06:03:42;8.10;99.90
41838;DHT22;27511;52.042;5.178;2023-11-22T06:06:07;8.10;99.90
41838;DHT22;27511;52.042;5.178;2023-11-22T06:08:33;8.10;99.90
41838;DHT22;27511;52.042;5.178;2023-11-22T06:10:59;8.10;99.90
41838;DHT22;27511;52.042;5.178;2023-11-22T06:13:25;8.10;99.90
41838;DHT22;27511;52.042;5.178;2023-11-22T06:15:51;8.20;99.90
41838;DHT22;27511;52.042;5.178;2023-11-22T06:18:17;8.00;99.90
41838;DHT22;27511;52.042;5.178;2023-11-22T06:20:44;8.10;99.90
41838;DHT22;27511;52.042;5.178;2023-11-22T06:23:10;8.10;99.90
41838;DHT22;27511;52.042;5.178;2023-11-22T06:25:35;8.20;99.90
41838;DHT22;27511;52.042;5.178;2023-11-22T06:28:04;8.10;99.90
41838;DHT22;27511;52.042;5.178;2023-11-22T06:30:30;8.10;99.90
41838;DHT22;27511;52.042;5.178;2023-11-22T06:32:56;8.10;99.90
41838;DHT22;27511;52.042;5.178;2023-11-22T06:35:21;8.00;99.90
41838;DHT22;27511;52.042;5.178;2023-11-22T06:37:47;8.00;99.90
41838;DHT22;27511;52.042;5.178;2023-11-22T06:40:13;8.10;99.90
41838;DHT22;27511;52.042;5.178;2023-11-22T06:42:39;7.90;99.90
41838;DHT22;27511;52.042;5.178;2023-11-22T06:45:06;7.90;99.90
41838;DHT22;27511;52.042;5.178;2023-11-22T06:47:41;7.90;99.90
41838;DHT22;27511;52.042;5.178;2023-11-22T06:50:08;7.90;99.90
41838;DHT22;27511;52.042;5.178;2023-11-22T06:52:38;7.90;99.90
41838;DHT22;27511;52.042;5.178;2023-11-22T06:55:04;7.90;99.90
41838;DHT22;27511;52.042;5.178;2023-11-22T06:57:30;8.00;99.90
41838;DHT22;27511;52.042;5.178;2023-11-22T06:59:56;8.00;99.90
41838;DHT22;27511;52.042;5.178;2023-11-22T07:02:22;8.00;99.90
41838;DHT22;27511;52.042;5.178;2023-11-22T07:04:47;8.00;99.90
41838;DHT22;27511;52.042;5.178;2023-11-22T07:07:13;8.00;99.90
41838;DHT22;27511;52.042;5.178;2023-11-22T07:09:43;8.00;99.90
41838;DHT22;27511;52.042;5.178;2023-11-22T07:12:09;8.00;99.90
41838;DHT22;27511;52.042;5.178;2023-11-22T07:14:35;8.00;99.90
41838;DHT22;27511;52.042;5.178;2023-11-22T07:17:02;8.00;99.90
41838;DHT22;27511;52.042;5.178;2023-11-22T07:19:28;8.00;99.90
41838;DHT22;27511;52.042;5.178;2023-11-22T07:21:53;8.00;99.90
41838;DHT22;27511;52.042;5.178;2023-11-22T07:24:19;7.90;99.90
41838;DHT22;27511;52.042;5.178;2023-11-22T07:26:45;7.90;99.90
41838;DHT22;27511;52.042;5.178;2023-11-22T07:29:10;7.90;99.90
41838;DHT22;27511;52.042;5.178;2023-11-22T07:31:38;8.00;99.90
41838;DHT22;27511;52.042;5.178;2023-11-22T07:34:04;7.90;99.90
41838;DHT22;27511;52.042;5.178;2023-11-22T07:36:29;7.80;99.90
41838;DHT22;27511;52.042;5.178;2023-11-22T07:38:56;7.80;99.90
41838;DHT22;27511;52.042;5.178;2023-11-22T07:41:22;7.80;99.90
41838;DHT22;27511;52.042;5.178;2023-11-22T07:43:47;7.80;99.90
41838;DHT22;27511;52.042;5.178;2023-11-22T07:46:13;7.80;99.90
41838;DHT22;27511;52.042;5.178;2023-11-22T07:48:39;7.90;99.90
41838;DHT22;27511;52.042;5.178;2023-11-22T07:51:06;7.80;99.90
41838;DHT22;27511;52.042;5.178;2023-11-22T07:53:33;7.90;99.90
41838;DHT22;27511;52.042;5.178;2023-11-22T07:56:00;7.80;99.90
41838;DHT22;27511;52.042;5.178;2023-11-22T07:58:30;7.80;99.90
41838;DHT22;27511;52.042;5.178;2023-11-22T08:00:56;7.80;99.90
41838;DHT22;27511;52.042;5.178;2023-11-22T08:03:22;7.80;99.90
41838;DHT22;27511;52.042;5.178;2023-11-22T08:05:51;7.80;99.90
41838;DHT22;27511;52.042;5.178;2023-11-22T08:08:21;7.80;99.90
41838;DHT22;27511;52.042;5.178;2023-11-22T08:10:47;7.80;99.90
41838;DHT22;27511;52.042;5.178;2023-11-22T08:13:14;7.90;99.90
41838;DHT22;27511;52.042;5.178;2023-11-22T08:15:40;7.80;99.90
41838;DHT22;27511;52.042;5.178;2023-11-22T08:18:06;7.90;99.90
41838;DHT22;27511;52.042;5.178;2023-11-22T08:20:31;7.90;99.90
41838;DHT22;27511;52.042;5.178;2023-11-22T08:22:57;7.90;99.90
41838;DHT22;27511;52.042;5.178;2023-11-22T08:25:23;7.90;99.90
41838;DHT22;27511;52.042;5.178;2023-11-22T08:27:49;8.00;99.90
41838;DHT22;27511;52.042;5.178;2023-11-22T08:30:15;7.90;99.90
41838;DHT22;27511;52.042;5.178;2023-11-22T08:32:44;8.00;99.90
41838;DHT22;27511;52.042;5.178;2023-11-22T08:35:13;7.90;99.90
41838;DHT22;27511;52.042;5.178;2023-11-22T08:37:41;8.00;99.90
41838;DHT22;27511;52.042;5.178;2023-11-22T08:40:10;8.00;99.90
41838;DHT22;27511;52.042;5.178;2023-11-22T08:42:45;8.10;99.90
41838;DHT22;27511;52.042;5.178;2023-11-22T08:45:11;8.00;99.90
41838;DHT22;27511;52.042;5.178;2023-11-22T08:47:40;8.10;99.90
41838;DHT22;27511;52.042;5.178;2023-11-22T08:50:07;8.10;99.90
41838;DHT22;27511;52.042;5.178;2023-11-22T08:52:34;8.10;99.90
41838;DHT22;27511;52.042;5.178;2023-11-22T08:55:00;8.20;99.90
41838;DHT22;27511;52.042;5.178;2023-11-22T08:57:26;8.20;99.90
41838;DHT22;27511;52.042;5.178;2023-11-22T08:59:52;8.30;99.90
41838;DHT22;27511;52.042;5.178;2023-11-22T09:02:19;8.30;99.90
41838;DHT22;27511;52.042;5.178;2023-11-22T09:04:47;8.40;99.90
41838;DHT22;27511;52.042;5.178;2023-11-22T09:07:13;8.50;99.90
41838;DHT22;27511;52.042;5.178;2023-11-22T09:09:40;8.50;99.90
41838;DHT22;27511;52.042;5.178;2023-11-22T09:12:07;8.50;99.90
41838;DHT22;27511;52.042;5.178;2023-11-22T09:14:39;8.60;99.90
41838;DHT22;27511;52.042;5.178;2023-11-22T09:17:06;8.60;99.90
41838;DHT22;27511;52.042;5.178;2023-11-22T09:19:32;8.60;99.90
41838;DHT22;27511;52.042;5.178;2023-11-22T09:21:57;8.60;99.90
41838;DHT22;27511;52.042;5.178;2023-11-22T09:24:23;8.70;99.90
41838;DHT22;27511;52.042;5.178;2023-11-22T09:26:49;8.70;99.90
41838;DHT22;27511;52.042;5.178;2023-11-22T09:29:15;8.80;99.90
41838;DHT22;27511;52.042;5.178;2023-11-22T09:31:40;8.80;99.90
41838;DHT22;27511;52.042;5.178;2023-11-22T09:34:08;8.80;99.90
41838;DHT22;27511;52.042;5.178;2023-11-22T09:36:35;8.80;99.90
41838;DHT22;27511;52.042;5.178;2023-11-22T09:39:00;9.00;99.90
41838;DHT22;27511;52.042;5.178;2023-11-22T09:41:28;8.80;99.90
41838;DHT22;27511;52.042;5.178;2023-11-22T09:43:54;8.80;99.90
41838;DHT22;27511;52.042;5.178;2023-11-22T09:46:22;8.80;99.90
41838;DHT22;27511;52.042;5.178;2023-11-22T09:48:49;8.90;99.90
41838;DHT22;27511;52.042;5.178;2023-11-22T09:51:24;8.90;99.90
41838;DHT22;27511;52.042;5.178;2023-11-22T09:53:57;9.00;99.90
41838;DHT22;27511;52.042;5.178;2023-11-22T09:56:26;9.10;99.90
41838;DHT22;27511;52.042;5.178;2023-11-22T09:58:55;9.00;99.90
41838;DHT22;27511;52.042;5.178;2023-11-22T10:01:22;9.10;99.90
41838;DHT22;27511;52.042;5.178;2023-11-22T10:03:49;9.10;99.90
41838;DHT22;27511;52.042;5.178;2023-11-22T10:06:15;9.10;99.90
41838;DHT22;27511;52.042;5.178;2023-11-22T10:08:43;9.00;99.90
41838;DHT22;27511;52.042;5.178;2023-11-22T10:11:09;9.10;99.90
41838;DHT22;27511;52.042;5.178;2023-11-22T10:13:35;9.10;99.90
41838;DHT22;27511;52.042;5.178;2023-11-22T10:16:11;9.20;99.90
41838;DHT22;27511;52.042;5.178;2023-11-22T10:18:45;9.20;99.90
41838;DHT22;27511;52.042;5.178;2023-11-22T10:21:25;9.10;99.90
41838;DHT22;27511;52.042;5.178;2023-11-22T10:23:53;9.20;99.90
41838;DHT22;27511;52.042;5.178;2023-11-22T10:26:19;9.20;99.90
41838;DHT22;27511;52.042;5.178;2023-11-22T10:28:45;9.30;99.90
41838;DHT22;27511;52.042;5.178;2023-11-22T10:31:11;9.20;99.90
41838;DHT22;27511;52.042;5.178;2023-11-22T10:33:40;9.20;99.90
41838;DHT22;27511;52.042;5.178;2023-11-22T10:36:09;9.40;99.90
41838;DHT22;27511;52.042;5.178;2023-11-22T10:38:35;9.40;99.90
41838;DHT22;27511;52.042;5.178;2023-11-22T10:41:06;9.40;99.90
41838;DHT22;27511;52.042;5.178;2023-11-22T10:43:34;9.40;99.90
41838;DHT22;27511;52.042;5.178;2023-11-22T10:46:02;9.40;99.90
41838;DHT22;27511;52.042;5.178;2023-11-22T10:48:31;9.40;99.90
41838;DHT22;27511;52.042;5.178;2023-11-22T10:51:01;9.50;99.90
41838;DHT22;27511;52.042;5.178;2023-11-22T10:53:36;9.50;99.90
41838;DHT22;27511;52.042;5.178;2023-11-22T10:58:32;9.50;99.90
41838;DHT22;27511;52.042;5.178;2023-11-22T11:01:00;9.50;99.90
41838;DHT22;27511;52.042;5.178;2023-11-22T11:03:28;9.60;99.90
41838;DHT22;27511;52.042;5.178;2023-11-22T11:06:04;9.60;99.90
41838;DHT22;27511;52.042;5.178;2023-11-22T11:08:33;9.60;99.90
41838;DHT22;27511;52.042;5.178;2023-11-22T11:11:01;9.70;99.90
41838;DHT22;27511;52.042;5.178;2023-11-22T11:13:29;9.70;99.90
41838;DHT22;27511;52.042;5.178;2023-11-22T11:15:56;9.70;99.90
41838;DHT22;27511;52.042;5.178;2023-11-22T11:18:23;9.80;99.90
41838;DHT22;27511;52.042;5.178;2023-11-22T11:20:52;9.90;99.90
41838;DHT22;27511;52.042;5.178;2023-11-22T11:23:28;9.90;99.90
41838;DHT22;27511;52.042;5.178;2023-11-22T11:25:55;10.00;99.90
41838;DHT22;27511;52.042;5.178;2023-11-22T11:28:22;10.10;99.90
41838;DHT22;27511;52.042;5.178;2023-11-22T11:30:51;10.10;99.90
41838;DHT22;27511;52.042;5.178;2023-11-22T11:33:26;10.10;99.90
41838;DHT22;27511;52.042;5.178;2023-11-22T11:35:52;10.10;99.90
41838;DHT22;27511;52.042;5.178;2023-11-22T11:38:21;10.10;99.90
41838;DHT22;27511;52.042;5.178;2023-11-22T11:40:50;10.20;99.90
41838;DHT22;27511;52.042;5.178;2023-11-22T11:43:46;10.20;99.90
41838;DHT22;27511;52.042;5.178;2023-11-22T11:46:16;10.10;99.90
41838;DHT22;27511;52.042;5.178;2023-11-22T11:48:43;10.10;99.90
41838;DHT22;27511;52.042;5.178;2023-11-22T11:51:09;10.10;99.90
41838;DHT22;27511;52.042;5.178;2023-11-22T11:53:34;10.10;99.90
41838;DHT22;27511;52.042;5.178;2023-11-22T11:56:01;10.10;99.90
41838;DHT22;27511;52.042;5.178;2023-11-22T11:58:27;10.20;99.90
41838;DHT22;27511;52.042;5.178;2023-11-22T12:00:54;10.30;99.90
41838;DHT22;27511;52.042;5.178;2023-11-22T12:03:20;10.20;99.90
41838;DHT22;27511;52.042;5.178;2023-11-22T12:05:47;10.20;99.90
41838;DHT22;27511;52.042;5.178;2023-11-22T12:08:14;10.30;99.90
41838;DHT22;27511;52.042;5.178;2023-11-22T12:10:44;10.20;99.90
41838;DHT22;27511;52.042;5.178;2023-11-22T12:13:17;10.30;99.90
41838;DHT22;27511;52.042;5.178;2023-11-22T12:15:42;10.30;99.90
41838;DHT22;27511;52.042;5.178;2023-11-22T12:18:08;10.10;99.90
41838;DHT22;27511;52.042;5.178;2023-11-22T12:20:33;10.10;99.90
41838;DHT22;27511;52.042;5.178;2023-11-22T12:23:01;10.10;99.90
41838;DHT22;27511;52.042;5.178;2023-11-22T12:25:27;10.20;99.90
41838;DHT22;27511;52.042;5.178;2023-11-22T12:27:54;10.20;99.90
41838;DHT22;27511;52.042;5.178;2023-11-22T12:30:32;10.30;99.90
41838;DHT22;27511;52.042;5.178;2023-11-22T12:33:16;10.00;99.90
41838;DHT22;27511;52.042;5.178;2023-11-22T12:35:43;10.00;99.90
41838;DHT22;27511;52.042;5.178;2023-11-22T12:38:10;10.00;99.90
41838;DHT22;27511;52.042;5.178;2023-11-22T12:40:36;9.90;99.90
41838;DHT22;27511;52.042;5.178;2023-11-22T12:43:03;10.20;99.90
41838;DHT22;27511;52.042;5.178;2023-11-22T12:45:32;10.20;99.90
41838;DHT22;27511;52.042;5.178;2023-11-22T12:48:20;10.40;99.90
41838;DHT22;27511;52.042;5.178;2023-11-22T12:50:46;10.40;99.90
41838;DHT22;27511;52.042;5.178;2023-11-22T12:53:16;10.40;99.90
41838;DHT22;27511;52.042;5.178;2023-11-22T12:55:46;10.50;99.90
41838;DHT22;27511;52.042;5.178;2023-11-22T12:58:18;10.40;99.90
41838;DHT22;27511;52.042;5.178;2023-11-22T13:00:45;10.50;99.90
41838;DHT22;27511;52.042;5.178;2023-11-22T13:03:11;10.40;99.90
41838;DHT22;27511;52.042;5.178;2023-11-22T13:05:38;10.30;99.90
41838;DHT22;27511;52.042;5.178;2023-11-22T13:08:03;10.20;99.90
41838;DHT22;27511;52.042;5.178;2023-11-22T13:10:29;10.10;99.90
41838;DHT22;27511;52.042;5.178;2023-11-22T13:12:56;10.20;99.90
41838;DHT22;27511;52.042;5.178;2023-11-22T13:15:22;10.20;99.90
41838;DHT22;27511;52.042;5.178;2023-11-22T13:17:55;10.10;99.90
41838;DHT22;27511;52.042;5.178;2023-11-22T13:20:24;10.20;99.90
41838;DHT22;27511;52.042;5.178;2023-11-22T13:22:52;10.20;99.90
41838;DHT22;27511;52.042;5.178;2023-11-22T13:25:17;10.20;99.90
41838;DHT22;27511;52.042;5.178;2023-11-22T13:27:47;10.20;99.90
41838;DHT22;27511;52.042;5.178;2023-11-22T13:30:14;10.20;99.90
41838;DHT22;27511;52.042;5.178;2023-11-22T13:32:40;10.10;99.90
41838;DHT22;27511;52.042;5.178;2023-11-22T13:35:08;10.10;99.90
41838;DHT22;27511;52.042;5.178;2023-11-22T13:37:42;10.10;99.90
41838;DHT22;27511;52.042;5.178;2023-11-22T13:40:10;10.10;99.90
41838;DHT22;27511;52.042;5.178;2023-11-22T13:42:41;10.10;99.90
41838;DHT22;27511;52.042;5.178;2023-11-22T13:45:07;10.00;99.90
41838;DHT22;27511;52.042;5.178;2023-11-22T13:47:33;10.10;99.90
41838;DHT22;27511;52.042;5.178;2023-11-22T13:49:59;10.10;99.90
41838;DHT22;27511;52.042;5.178;2023-11-22T13:52:24;9.80;99.90
41838;DHT22;27511;52.042;5.178;2023-11-22T13:54:50;9.90;99.90
41838;DHT22;27511;52.042;5.178;2023-11-22T13:57:20;9.90;99.90
41838;DHT22;27511;52.042;5.178;2023-11-22T13:59:46;9.90;99.90
41838;DHT22;27511;52.042;5.178;2023-11-22T14:02:11;9.80;99.90
41838;DHT22;27511;52.042;5.178;2023-11-22T14:04:37;9.90;99.90
41838;DHT22;27511;52.042;5.178;2023-11-22T14:07:04;9.80;99.90
41838;DHT22;27511;52.042;5.178;2023-11-22T14:09:30;9.60;99.90
41838;DHT22;27511;52.042;5.178;2023-11-22T14:11:56;9.70;99.90
41838;DHT22;27511;52.042;5.178;2023-11-22T14:14:22;9.60;99.90
41838;DHT22;27511;52.042;5.178;2023-11-22T14:16:48;9.50;99.90
41838;DHT22;27511;52.042;5.178;2023-11-22T14:19:14;9.50;99.90
41838;DHT22;27511;52.042;5.178;2023-11-22T14:21:40;9.60;99.90
41838;DHT22;27511;52.042;5.178;2023-11-22T14:24:06;9.60;99.90
41838;DHT22;27511;52.042;5.178;2023-11-22T14:26:31;9.50;99.90
41838;DHT22;27511;52.042;5.178;2023-11-22T14:28:57;9.50;99.90
41838;DHT22;27511;52.042;5.178;2023-11-22T14:31:22;9.60;99.90
41838;DHT22;27511;52.042;5.178;2023-11-22T14:33:48;9.60;99.90
41838;DHT22;27511;52.042;5.178;2023-11-22T14:36:14;9.50;99.90
41838;DHT22;27511;52.042;5.178;2023-11-22T14:38:41;9.60;99.90
41838;DHT22;27511;52.042;5.178;2023-11-22T14:41:07;9.70;99.90
41838;DHT22;27511;52.042;5.178;2023-11-22T14:43:35;9.60;99.90
41838;DHT22;27511;52.042;5.178;2023-11-22T14:46:01;9.60;99.90
41838;DHT22;27511;52.042;5.178;2023-11-22T14:48:26;9.60;99.90
41838;DHT22;27511;52.042;5.178;2023-11-22T14:50:52;9.60;99.90
41838;DHT22;27511;52.042;5.178;2023-11-22T14:53:18;9.60;99.90
41838;DHT22;27511;52.042;5.178;2023-11-22T14:55:43;9.60;99.90
41838;DHT22;27511;52.042;5.178;2023-11-22T14:58:09;9.40;99.90
41838;DHT22;27511;52.042;5.178;2023-11-22T15:00:34;9.40;99.90
41838;DHT22;27511;52.042;5.178;2023-11-22T15:03:01;9.40;99.90
41838;DHT22;27511;52.042;5.178;2023-11-22T15:05:27;9.40;99.90
41838;DHT22;27511;52.042;5.178;2023-11-22T15:07:53;9.40;99.90
41838;DHT22;27511;52.042;5.178;2023-11-22T15:10:22;9.40;99.90
41838;DHT22;27511;52.042;5.178;2023-11-22T15:12:48;9.40;99.90
41838;DHT22;27511;52.042;5.178;2023-11-22T15:15:14;9.40;99.90
41838;DHT22;27511;52.042;5.178;2023-11-22T15:17:40;9.30;99.90
41838;DHT22;27511;52.042;5.178;2023-11-22T15:20:06;9.20;99.90
41838;DHT22;27511;52.042;5.178;2023-11-22T15:22:35;9.10;99.90
41838;DHT22;27511;52.042;5.178;2023-11-22T15:25:01;9.10;99.90
41838;DHT22;27511;52.042;5.178;2023-11-22T15:27:26;9.20;99.90
41838;DHT22;27511;52.042;5.178;2023-11-22T15:29:52;9.20;99.90
41838;DHT22;27511;52.042;5.178;2023-11-22T15:32:17;9.20;99.90
41838;DHT22;27511;52.042;5.178;2023-11-22T15:34:43;9.20;99.90
41838;DHT22;27511;52.042;5.178;2023-11-22T15:37:08;9.20;99.90
41838;DHT22;27511;52.042;5.178;2023-11-22T15:39:36;9.30;99.90
41838;DHT22;27511;52.042;5.178;2023-11-22T15:42:02;9.30;99.90
41838;DHT22;27511;52.042;5.178;2023-11-22T15:44:31;9.20;99.90